createdAt,value
2018-07-11T00:02:15.582Z,15.40
2018-07-11T00:04:44.084Z,15.40
2018-07-11T00:07:12.906Z,15.40
2018-07-11T00:09:41.328Z,15.40
2018-07-11T00:12:09.756Z,15.40
2018-07-11T00:14:38.192Z,15.30
2018-07-11T00:17:10.800Z,15.40
2018-07-11T00:19:39.322Z,15.30
2018-07-11T00:22:07.805Z,15.20
2018-07-11T00:24:36.239Z,15.10
2018-07-11T00:27:04.879Z,14.90
2018-07-11T00:29:34.276Z,14.90
2018-07-11T00:32:02.780Z,14.90
2018-07-11T00:34:31.248Z,14.90
2018-07-11T00:36:59.724Z,14.90
2018-07-11T00:39:28.279Z,14.90
2018-07-11T00:41:56.728Z,14.80
2018-07-11T00:44:25.207Z,14.70
2018-07-11T00:46:53.700Z,14.60
2018-07-11T00:49:22.227Z,14.50
2018-07-11T00:51:50.763Z,14.40
2018-07-11T00:54:19.546Z,14.30
2018-07-11T00:56:48.016Z,14.40
2018-07-11T00:59:28.404Z,14.40
2018-07-11T01:02:05.632Z,14.30
2018-07-11T01:04:34.315Z,14.40
2018-07-11T01:07:04.584Z,14.50
2018-07-11T01:09:37.443Z,14.60
2018-07-11T01:12:06.404Z,14.60
2018-07-11T01:14:34.953Z,14.60
2018-07-11T01:17:07.304Z,14.50
2018-07-11T01:19:36.439Z,14.50
2018-07-11T01:22:04.864Z,14.40
2018-07-11T01:24:33.503Z,14.40
2018-07-11T01:27:02.202Z,14.40
2018-07-11T01:29:30.599Z,14.30
2018-07-11T01:31:59.073Z,14.40
2018-07-11T01:34:27.506Z,14.50
2018-07-11T01:36:56.205Z,14.50
2018-07-11T01:39:24.665Z,14.60
2018-07-11T01:41:53.134Z,14.60
2018-07-11T01:44:21.603Z,14.60
2018-07-11T01:46:51.293Z,14.60
2018-07-11T01:49:19.743Z,14.70
2018-07-11T01:51:59.464Z,14.70
2018-07-11T01:54:28.679Z,14.70
2018-07-11T01:56:57.145Z,14.70
2018-07-11T01:59:28.775Z,14.70
2018-07-11T02:01:57.231Z,14.60
2018-07-11T02:04:25.735Z,14.60
2018-07-11T02:06:54.184Z,14.50
2018-07-11T02:09:22.667Z,14.40
2018-07-11T02:11:51.129Z,14.40
2018-07-11T02:14:19.580Z,14.30
2018-07-11T02:16:48.120Z,14.30
2018-07-11T02:19:19.128Z,14.20
2018-07-11T02:21:48.476Z,14.10
2018-07-11T02:24:17.052Z,14.10
2018-07-11T02:26:45.464Z,14.00
2018-07-11T02:29:13.944Z,14.00
2018-07-11T02:31:42.480Z,14.00
2018-07-11T02:34:10.974Z,14.00
2018-07-11T02:36:39.377Z,14.10
2018-07-11T02:39:07.783Z,14.10
2018-07-11T02:41:36.195Z,14.20
2018-07-11T02:46:38.197Z,14.20
2018-07-11T02:49:06.801Z,14.20
2018-07-11T02:51:35.287Z,14.20
2018-07-11T02:54:03.743Z,14.20
2018-07-11T02:56:32.141Z,14.20
2018-07-11T02:59:00.705Z,14.20
2018-07-11T03:01:29.167Z,14.30
2018-07-11T03:03:57.630Z,14.30
2018-07-11T03:06:26.216Z,14.30
2018-07-11T03:08:54.655Z,14.30
2018-07-11T03:11:23.077Z,14.20
2018-07-11T03:13:51.515Z,14.20
2018-07-11T03:16:20.017Z,14.20
2018-07-11T03:18:48.418Z,14.20
2018-07-11T03:21:16.964Z,14.00
2018-07-11T03:23:45.422Z,14.00
2018-07-11T03:26:14.001Z,13.90
2018-07-11T03:28:42.456Z,14.00
2018-07-11T03:31:10.860Z,13.90
2018-07-11T03:33:39.295Z,14.00
2018-07-11T03:36:07.756Z,14.00
2018-07-11T03:38:36.223Z,14.00
2018-07-11T03:41:04.699Z,14.00
2018-07-11T03:43:33.143Z,13.90
2018-07-11T03:46:01.774Z,13.90
2018-07-11T03:48:30.400Z,13.80
2018-07-11T03:50:58.830Z,13.80
2018-07-11T03:53:27.272Z,13.90
2018-07-11T03:55:55.773Z,13.90
2018-07-11T03:58:24.217Z,13.90
2018-07-11T04:00:53.773Z,13.80
2018-07-11T04:03:22.385Z,13.80
2018-07-11T04:05:50.798Z,13.80
2018-07-11T04:08:19.200Z,13.80
2018-07-11T04:10:47.624Z,14.00
2018-07-11T04:13:17.720Z,14.00
2018-07-11T04:15:46.413Z,14.20
2018-07-11T04:18:20.864Z,14.20
2018-07-11T04:23:17.445Z,14.10
2018-07-11T04:25:45.996Z,14.10
2018-07-11T04:28:14.404Z,14.20
2018-07-11T04:30:43.620Z,14.20
2018-07-11T04:33:12.156Z,14.30
2018-07-11T04:35:40.642Z,14.40
2018-07-11T04:38:09.130Z,14.50
2018-07-11T04:40:37.707Z,14.60
2018-07-11T04:43:06.452Z,14.60
2018-07-11T04:45:35.017Z,14.60
2018-07-11T04:48:03.720Z,14.70
2018-07-11T04:50:32.288Z,14.60
2018-07-11T04:53:02.019Z,14.80
2018-07-11T04:55:31.083Z,14.90
2018-07-11T04:57:59.552Z,14.90
2018-07-11T05:00:28.024Z,15.20
2018-07-11T05:02:56.874Z,15.50
2018-07-11T05:05:25.560Z,15.80
2018-07-11T05:07:54.220Z,16.00
2018-07-11T05:10:22.844Z,16.20
2018-07-11T05:12:51.241Z,16.30
2018-07-11T05:15:19.768Z,16.40
2018-07-11T05:17:48.177Z,16.40
2018-07-11T05:20:16.620Z,16.50
2018-07-11T05:22:45.117Z,16.70
2018-07-11T05:25:13.559Z,16.80
2018-07-11T05:27:41.963Z,17.00
2018-07-11T05:30:10.421Z,17.20
2018-07-11T05:32:38.820Z,17.40
2018-07-11T05:35:07.298Z,17.60
2018-07-11T05:37:36.646Z,17.80
2018-07-11T05:40:05.216Z,17.90
2018-07-11T05:42:33.720Z,18.00
2018-07-11T05:45:02.317Z,17.90
2018-07-11T05:47:30.818Z,17.90
2018-07-11T05:49:59.307Z,18.00
2018-07-11T05:52:27.775Z,18.20
2018-07-11T05:54:56.170Z,18.10
2018-07-11T05:57:24.587Z,18.10
2018-07-11T05:59:53.906Z,18.10
2018-07-11T06:02:22.326Z,18.20
2018-07-11T06:04:50.886Z,18.40
2018-07-11T06:07:19.428Z,19.00
2018-07-11T06:09:47.880Z,19.50
2018-07-11T06:12:16.328Z,20.10
2018-07-11T06:14:44.826Z,20.70
2018-07-11T06:17:13.234Z,21.10
2018-07-11T06:19:41.636Z,21.40
2018-07-11T06:22:10.073Z,21.60
2018-07-11T06:24:38.496Z,21.70
2018-07-11T06:27:07.024Z,21.80
2018-07-11T06:29:35.440Z,22.00
2018-07-11T06:32:04.486Z,21.90
2018-07-11T06:34:32.961Z,22.00
2018-07-11T06:37:01.413Z,22.00
2018-07-11T06:41:58.120Z,21.30
2018-07-11T06:44:26.677Z,21.00
2018-07-11T06:46:55.119Z,21.50
2018-07-11T06:49:23.581Z,21.70
2018-07-11T06:51:52.053Z,21.50
2018-07-11T06:54:20.564Z,21.00
2018-07-11T06:56:48.968Z,20.30
2018-07-11T06:59:17.916Z,20.00
2018-07-11T07:01:46.340Z,20.00
2018-07-11T07:04:14.816Z,20.00
2018-07-11T07:06:43.210Z,20.10
2018-07-11T07:09:11.682Z,20.40
2018-07-11T07:11:40.180Z,20.80
2018-07-11T07:14:08.673Z,21.30
2018-07-11T07:16:37.176Z,21.90
2018-07-11T07:19:05.784Z,22.40
2018-07-11T07:21:34.245Z,22.30
2018-07-11T07:24:02.659Z,22.00
2018-07-11T07:26:31.122Z,21.40
2018-07-11T07:28:59.579Z,20.90
2018-07-11T07:31:27.975Z,21.10
2018-07-11T07:33:56.388Z,21.60
2018-07-11T07:36:24.808Z,21.90
2018-07-11T07:38:53.328Z,22.40
2018-07-11T07:41:21.765Z,22.60
2018-07-11T07:43:50.237Z,22.50
2018-07-11T07:46:18.778Z,22.50
2018-07-11T07:48:47.328Z,22.80
2018-07-11T07:51:15.984Z,22.70
2018-07-11T07:53:44.466Z,22.70
2018-07-11T07:56:12.938Z,22.60
2018-07-11T07:58:41.416Z,23.00
2018-07-11T08:01:09.904Z,23.20
2018-07-11T08:03:38.590Z,22.90
2018-07-11T08:06:07.004Z,22.70
2018-07-11T08:08:35.417Z,23.00
2018-07-11T08:11:04.029Z,23.30
2018-07-11T08:13:32.568Z,23.20
2018-07-11T08:16:01.720Z,23.30
2018-07-11T08:18:30.180Z,23.40
2018-07-11T08:20:58.815Z,24.00
2018-07-11T08:23:40.551Z,24.40
2018-07-11T08:26:20.527Z,23.90
2018-07-11T08:29:03.644Z,23.60
2018-07-11T08:31:50.853Z,23.80
2018-07-11T08:34:36.017Z,24.10
2018-07-11T08:37:18.694Z,24.60
2018-07-11T08:41:03.076Z,24.70
2018-07-11T08:44:11.034Z,24.40
2018-07-11T08:47:21.844Z,24.50
2018-07-11T08:52:04.786Z,25.10
2018-07-11T08:56:47.136Z,25.30
2018-07-11T09:01:34.003Z,25.50
2018-07-11T09:06:16.037Z,25.30
2018-07-11T09:08:54.087Z,25.20
2018-07-11T09:12:36.360Z,24.80
2018-07-11T09:17:15.936Z,25.20
2018-07-11T09:19:54.636Z,26.20
2018-07-11T09:23:36.073Z,26.50
2018-07-11T09:26:05.164Z,25.80
2018-07-11T09:28:33.562Z,24.80
2018-07-11T09:31:02.007Z,24.20
2018-07-11T09:33:30.494Z,24.00
2018-07-11T09:35:58.964Z,24.10
2018-07-11T09:38:27.391Z,24.50
2018-07-11T09:40:55.947Z,24.80
2018-07-11T09:43:24.398Z,24.90
2018-07-11T09:45:52.959Z,24.40
2018-07-11T09:48:21.489Z,23.90
2018-07-11T09:50:50.155Z,23.70
2018-07-11T09:53:18.703Z,23.90
2018-07-11T09:55:47.153Z,24.30
2018-07-11T09:58:15.743Z,24.60
2018-07-11T10:00:49.533Z,24.80
2018-07-11T10:03:18.641Z,24.80
2018-07-11T10:05:47.111Z,24.80
2018-07-11T10:08:16.065Z,24.20
2018-07-11T10:10:44.663Z,23.80
2018-07-11T10:13:19.960Z,23.80
2018-07-11T10:15:48.366Z,23.80
2018-07-11T10:18:16.811Z,23.80
2018-07-11T10:20:45.302Z,24.00
2018-07-11T10:23:13.776Z,23.90
2018-07-11T10:25:44.088Z,24.00
2018-07-11T10:28:18.616Z,24.10
2018-07-11T10:30:47.208Z,24.10
2018-07-11T10:33:15.643Z,23.90
2018-07-11T10:35:44.116Z,23.60
2018-07-11T10:38:13.401Z,23.90
2018-07-11T10:40:41.891Z,24.30
2018-07-11T10:43:10.623Z,24.40
2018-07-11T10:45:39.476Z,25.10
2018-07-11T10:48:08.182Z,25.60
2018-07-11T10:50:36.736Z,26.20
2018-07-11T10:53:05.336Z,26.30
2018-07-11T10:55:33.748Z,25.80
2018-07-11T10:58:02.314Z,25.90
2018-07-11T11:00:36.663Z,25.80
2018-07-11T11:02:59.694Z,25.60
2018-07-11T11:05:28.171Z,25.40
2018-07-11T11:07:56.591Z,25.40
2018-07-11T11:10:25.964Z,25.30
2018-07-11T11:12:54.436Z,25.20
2018-07-11T11:15:22.916Z,25.30
2018-07-11T11:17:51.302Z,25.10
2018-07-11T11:20:19.722Z,25.00
2018-07-11T11:22:48.211Z,24.90
2018-07-11T11:25:16.756Z,25.10
2018-07-11T11:27:45.246Z,25.40
2018-07-11T11:30:13.658Z,25.30
2018-07-11T11:32:42.158Z,25.50
2018-07-11T11:35:10.671Z,25.50
2018-07-11T11:37:39.241Z,25.30
2018-07-11T11:40:07.670Z,25.20
2018-07-11T11:42:36.541Z,25.00
2018-07-11T11:45:05.040Z,24.80
2018-07-11T11:47:34.328Z,24.70
2018-07-11T11:50:02.773Z,24.20
2018-07-11T11:52:31.184Z,24.00
2018-07-11T11:54:59.656Z,23.80
2018-07-11T11:57:28.199Z,23.70
2018-07-11T11:59:56.648Z,23.60
2018-07-11T12:02:25.180Z,23.50
2018-07-11T12:04:53.765Z,23.50
2018-07-11T12:07:22.221Z,23.70
2018-07-11T12:09:50.677Z,24.00
2018-07-11T12:12:19.168Z,24.30
2018-07-11T12:14:47.600Z,24.50
2018-07-11T12:17:16.109Z,24.50
2018-07-11T12:19:45.213Z,24.70
2018-07-11T12:22:25.077Z,24.60
2018-07-11T12:24:54.236Z,24.60
2018-07-11T12:27:22.726Z,24.50
2018-07-11T12:29:52.434Z,24.50
2018-07-11T12:32:21.280Z,24.60
2018-07-11T12:34:49.763Z,24.60
2018-07-11T12:37:18.846Z,24.70
2018-07-11T12:39:47.689Z,24.80
2018-07-11T12:42:16.228Z,24.70
2018-07-11T12:44:44.926Z,24.70
2018-07-11T12:47:19.324Z,24.60
2018-07-11T12:49:47.860Z,24.70
2018-07-11T12:52:16.417Z,24.70
2018-07-11T12:54:44.980Z,24.80
2018-07-11T12:57:13.575Z,24.90
2018-07-11T12:59:42.079Z,25.00
2018-07-11T13:02:10.963Z,25.00
2018-07-11T13:04:39.445Z,25.00
2018-07-11T13:07:08.165Z,25.00
2018-07-11T13:09:37.701Z,25.00
2018-07-11T13:12:06.818Z,24.80
2018-07-11T13:14:35.515Z,25.00
2018-07-11T13:17:04.042Z,25.20
2018-07-11T13:19:32.425Z,25.30
2018-07-11T13:22:00.845Z,25.50
2018-07-11T13:24:29.263Z,25.40
2018-07-11T13:26:57.740Z,25.40
2018-07-11T13:29:26.285Z,25.40
2018-07-11T13:31:54.877Z,25.20
2018-07-11T13:34:23.327Z,25.00
2018-07-11T13:36:52.783Z,24.80
2018-07-11T13:39:22.318Z,24.50
2018-07-11T13:41:51.552Z,24.30
2018-07-11T13:44:20.084Z,24.00
2018-07-11T13:46:48.694Z,24.00
2018-07-11T13:49:17.096Z,23.90
2018-07-11T13:51:45.788Z,23.80
2018-07-11T13:56:42.562Z,23.50
2018-07-11T13:59:11.045Z,23.40
2018-07-11T14:01:39.508Z,23.40
2018-07-11T14:04:08.079Z,23.20
2018-07-11T14:06:36.621Z,23.20
2018-07-11T14:09:05.149Z,23.20
2018-07-11T14:11:33.641Z,23.20
2018-07-11T14:14:02.690Z,23.10
2018-07-11T14:16:31.137Z,23.10
2018-07-11T14:18:59.598Z,23.10
2018-07-11T14:21:28.029Z,23.20
2018-07-11T14:23:57.912Z,23.00
2018-07-11T14:26:27.412Z,22.80
2018-07-11T14:28:55.850Z,22.70
2018-07-11T14:31:30.277Z,22.70
2018-07-11T14:34:01.205Z,22.70
2018-07-11T14:36:29.655Z,22.70
2018-07-11T14:38:58.180Z,22.60
2018-07-11T14:41:26.693Z,22.60
2018-07-11T14:43:57.364Z,22.50
2018-07-11T14:46:27.377Z,22.50
2018-07-11T14:48:55.834Z,22.50
2018-07-11T14:51:24.568Z,22.50
2018-07-11T14:53:54.276Z,22.40
2018-07-11T14:56:22.829Z,22.30
2018-07-11T14:58:53.677Z,22.20
2018-07-11T15:01:22.728Z,22.30
2018-07-11T15:03:51.274Z,22.20
2018-07-11T15:06:20.014Z,22.30
2018-07-11T15:08:48.827Z,22.40
2018-07-11T15:11:17.285Z,22.30
2018-07-11T15:13:45.947Z,22.20
2018-07-11T15:16:15.301Z,22.00
2018-07-11T15:18:43.771Z,21.90
2018-07-11T15:21:12.735Z,21.70
2018-07-11T15:23:41.189Z,21.30
2018-07-11T15:26:09.692Z,20.90
2018-07-11T15:28:38.238Z,20.70
2018-07-11T15:31:06.887Z,20.50
2018-07-11T15:33:35.429Z,20.50
2018-07-11T15:36:03.871Z,20.60
2018-07-11T15:38:32.389Z,20.50
2018-07-11T15:41:01.565Z,20.30
2018-07-11T15:43:30.597Z,20.00
2018-07-11T15:45:59.770Z,19.90
2018-07-11T15:48:28.669Z,19.80
2018-07-11T15:50:57.374Z,19.70
2018-07-11T15:53:28.985Z,19.70
2018-07-11T15:55:57.511Z,19.60
2018-07-11T15:58:27.479Z,19.50
2018-07-11T16:01:00.007Z,19.50
2018-07-11T16:03:28.481Z,19.60
2018-07-11T16:05:57.064Z,19.70
2018-07-11T16:08:25.435Z,19.70
2018-07-11T16:10:57.401Z,19.90
2018-07-11T16:13:25.801Z,20.10
2018-07-11T16:15:54.377Z,20.10
2018-07-11T16:18:22.890Z,20.20
2018-07-11T16:20:51.897Z,20.30
2018-07-11T16:23:20.331Z,20.30
2018-07-11T16:25:48.803Z,20.30
2018-07-11T16:28:17.313Z,20.40
2018-07-11T16:30:45.767Z,20.30
2018-07-11T16:33:14.275Z,20.40
2018-07-11T16:35:42.664Z,20.60
2018-07-11T16:38:11.265Z,20.70
2018-07-11T16:40:39.693Z,20.70
2018-07-11T16:43:08.149Z,20.70
2018-07-11T16:45:37.115Z,20.80
2018-07-11T16:48:05.631Z,20.70
2018-07-11T16:50:35.259Z,20.60
2018-07-11T16:53:04.612Z,20.40
2018-07-11T16:55:34.981Z,20.50
2018-07-11T16:58:03.506Z,20.40
2018-07-11T17:00:33.695Z,20.40
2018-07-11T17:03:06.611Z,20.50
2018-07-11T17:06:03.469Z,20.50
2018-07-11T17:08:33.284Z,20.60
2018-07-11T17:11:08.099Z,20.60
2018-07-11T17:13:36.785Z,20.80
2018-07-11T17:16:05.405Z,20.80
2018-07-11T17:18:45.151Z,20.70
2018-07-11T17:21:23.460Z,20.60
2018-07-11T17:23:55.171Z,20.40
2018-07-11T17:26:25.976Z,20.30
2018-07-11T17:28:56.224Z,20.10
2018-07-11T17:31:24.998Z,20.20
2018-07-11T17:33:53.453Z,20.20
2018-07-11T17:36:22.015Z,20.20
2018-07-11T17:38:50.630Z,20.10
2018-07-11T17:41:19.098Z,19.90
2018-07-11T17:43:52.079Z,19.90
2018-07-11T17:46:21.789Z,19.70
2018-07-11T17:49:06.481Z,19.50
2018-07-11T17:51:46.381Z,19.40
2018-07-11T17:54:14.944Z,19.30
2018-07-11T17:56:52.323Z,19.30
2018-07-11T18:01:31.498Z,19.40
2018-07-11T18:04:15.186Z,19.40
2018-07-11T18:07:02.291Z,19.20
2018-07-11T18:10:08.652Z,19.30
2018-07-11T18:12:52.330Z,19.50
2018-07-11T18:15:49.824Z,19.70
2018-07-11T18:19:39.370Z,19.80
2018-07-11T18:22:21.722Z,19.80
2018-07-11T18:24:57.876Z,20.00
2018-07-11T18:28:34.774Z,20.10
2018-07-11T18:31:13.252Z,20.00
2018-07-11T18:35:14.252Z,20.10
2018-07-11T18:37:52.290Z,20.20
2018-07-11T18:40:41.452Z,20.20
2018-07-11T18:45:27.404Z,20.30
2018-07-11T18:48:25.557Z,20.30
2018-07-11T18:51:02.521Z,20.30
2018-07-11T18:53:48.088Z,20.30
2018-07-11T18:56:28.303Z,20.30
2018-07-11T18:59:09.553Z,20.20
2018-07-11T19:03:54.889Z,20.20
2018-07-11T19:06:31.802Z,20.20
2018-07-11T19:09:06.579Z,20.20
2018-07-11T19:12:48.804Z,20.20
2018-07-11T19:16:25.389Z,20.10
2018-07-11T19:19:03.660Z,20.10
2018-07-11T19:21:41.187Z,20.10
2018-07-11T19:24:16.580Z,20.10
2018-07-11T19:26:53.925Z,20.10
2018-07-11T19:30:29.984Z,20.10
2018-07-11T19:33:07.458Z,20.10
2018-07-11T19:35:43.198Z,20.10
2018-07-11T19:38:40.150Z,20.00
2018-07-11T19:41:17.632Z,20.00
2018-07-11T19:43:53.668Z,20.00
2018-07-11T19:46:45.356Z,20.00
2018-07-11T19:49:25.388Z,20.00
2018-07-11T19:52:37.088Z,19.90
2018-07-11T19:57:13.562Z,19.90
2018-07-11T19:59:42.132Z,19.90
2018-07-11T20:02:11.014Z,19.90
2018-07-11T20:04:39.420Z,19.80
2018-07-11T20:07:08.374Z,19.90
2018-07-11T20:09:36.822Z,20.00
2018-07-11T20:12:05.828Z,20.00
2018-07-11T20:14:34.276Z,20.00
2018-07-11T20:17:03.208Z,20.00
2018-07-11T20:19:31.656Z,20.00
2018-07-11T20:22:00.110Z,20.00
2018-07-11T20:24:28.836Z,20.00
2018-07-11T20:26:57.771Z,20.10
2018-07-11T20:29:26.272Z,20.10
2018-07-11T20:31:54.834Z,20.10
2018-07-11T20:34:23.316Z,20.00
2018-07-11T20:36:51.826Z,20.00
2018-07-11T20:39:20.648Z,20.00
2018-07-11T20:41:49.217Z,20.00
2018-07-11T20:44:17.684Z,20.00
2018-07-11T20:46:46.725Z,19.80
2018-07-11T20:49:22.718Z,19.70
2018-07-11T20:51:51.861Z,19.70
2018-07-11T20:54:20.382Z,19.50
2018-07-11T20:56:48.768Z,19.40
2018-07-11T20:59:28.512Z,19.40
2018-07-11T21:02:11.048Z,19.30
2018-07-11T21:07:03.580Z,19.30
2018-07-11T21:10:45.680Z,19.30
2018-07-11T21:15:29.570Z,19.20
2018-07-11T21:19:06.680Z,19.10
2018-07-11T21:21:35.986Z,19.10
2018-07-11T21:24:05.318Z,19.10
2018-07-11T21:26:33.794Z,19.10
2018-07-11T21:29:02.208Z,19.00
2018-07-11T21:31:30.757Z,19.00
2018-07-11T21:33:59.198Z,19.00
2018-07-11T21:36:27.637Z,19.10
2018-07-11T21:38:56.078Z,19.10
2018-07-11T21:41:24.573Z,19.00
2018-07-11T21:43:53.025Z,19.00
2018-07-11T21:46:21.792Z,19.00
2018-07-11T21:48:50.236Z,19.00
2018-07-11T21:51:18.699Z,19.00
2018-07-11T21:53:47.100Z,19.10
2018-07-11T21:56:15.578Z,19.10
2018-07-11T21:58:43.992Z,19.00
2018-07-11T22:01:13.028Z,19.00
2018-07-11T22:03:41.524Z,19.00
2018-07-11T22:06:09.975Z,19.00
2018-07-11T22:08:38.422Z,19.00
2018-07-11T22:11:07.150Z,19.00
2018-07-11T22:13:35.572Z,19.00
2018-07-11T22:16:04.024Z,19.00
2018-07-11T22:18:35.816Z,19.00
2018-07-11T22:21:04.121Z,18.90
2018-07-11T22:23:31.515Z,19.00
2018-07-11T22:25:59.035Z,19.00
2018-07-11T22:28:26.340Z,19.00
2018-07-11T22:30:53.618Z,19.00
2018-07-11T22:33:20.969Z,19.00
2018-07-11T22:35:48.322Z,19.00
2018-07-11T22:38:15.640Z,19.00
2018-07-11T22:40:43.676Z,19.00
2018-07-11T22:43:11.072Z,18.90
2018-07-11T22:45:38.353Z,18.90
2018-07-11T22:48:05.650Z,18.90
2018-07-11T22:50:33.034Z,18.80
2018-07-11T22:53:00.347Z,18.60
2018-07-11T22:55:27.671Z,18.60
2018-07-11T22:57:55.004Z,18.50
2018-07-11T23:00:22.309Z,18.60
2018-07-11T23:02:49.591Z,18.60
2018-07-11T23:05:16.924Z,18.60
2018-07-11T23:07:44.229Z,18.70
2018-07-11T23:10:12.407Z,18.70
2018-07-11T23:12:39.788Z,18.70
2018-07-11T23:15:07.091Z,18.60
2018-07-11T23:17:34.459Z,18.60
2018-07-11T23:20:01.738Z,18.60
2018-07-11T23:22:29.073Z,18.60
2018-07-11T23:24:56.374Z,18.60
2018-07-11T23:27:23.778Z,18.60
2018-07-11T23:29:51.092Z,18.60
2018-07-11T23:32:18.419Z,18.60
2018-07-11T23:34:45.716Z,18.60
2018-07-11T23:37:13.046Z,18.60
2018-07-11T23:39:40.326Z,18.60
2018-07-11T23:42:07.655Z,18.60
2018-07-11T23:44:34.964Z,18.50
2018-07-11T23:47:02.253Z,18.50
2018-07-11T23:49:29.571Z,18.50
2018-07-11T23:51:56.920Z,18.40
2018-07-11T23:54:24.224Z,18.30
2018-07-11T23:56:51.841Z,18.20
2018-07-11T23:59:20.381Z,18.10
